createdAt,value
2022-07-30T00:00:11.066Z,55.22
2022-07-30T00:01:11.123Z,55.19
2022-07-30T00:02:11.065Z,55.26
2022-07-30T00:03:11.061Z,55.26
2022-07-30T00:04:11.069Z,55.22
2022-07-30T00:05:11.067Z,55.28
2022-07-30T00:06:11.062Z,55.28
2022-07-30T00:07:11.069Z,55.34
2022-07-30T00:08:11.066Z,55.23
2022-07-30T00:09:11.062Z,55.24
2022-07-30T00:10:11.066Z,55.17
2022-07-30T00:11:11.067Z,55.07
2022-07-30T00:12:11.064Z,55.01
2022-07-30T00:13:11.066Z,54.99
2022-07-30T00:14:11.075Z,54.91
2022-07-30T00:15:11.065Z,54.90
2022-07-30T00:16:11.162Z,54.86
2022-07-30T00:17:11.117Z,54.96
2022-07-30T00:18:11.942Z,54.99
2022-07-30T00:19:11.069Z,55.02
2022-07-30T00:20:11.320Z,55.00
2022-07-30T00:21:11.114Z,55.11
2022-07-30T00:22:11.070Z,55.13
2022-07-30T00:23:11.057Z,55.22
2022-07-30T00:24:11.056Z,55.21
2022-07-30T00:25:11.055Z,55.27
2022-07-30T00:26:11.056Z,55.40
2022-07-30T00:27:11.053Z,55.42
2022-07-30T00:28:11.063Z,55.37
2022-07-30T00:29:11.053Z,55.51
2022-07-30T00:30:11.055Z,55.59
2022-07-30T00:31:11.130Z,55.72
2022-07-30T00:32:11.053Z,55.71
2022-07-30T00:33:11.057Z,55.67
2022-07-30T00:34:11.077Z,55.72
2022-07-30T00:35:11.055Z,55.77
2022-07-30T00:36:11.063Z,55.83
2022-07-30T00:37:11.054Z,55.81
2022-07-30T00:38:11.057Z,55.81
2022-07-30T00:39:11.062Z,55.88
2022-07-30T00:40:11.057Z,55.84
2022-07-30T00:41:11.051Z,55.83
2022-07-30T00:42:11.065Z,55.88
2022-07-30T00:43:13.059Z,55.85
2022-07-30T00:44:11.055Z,55.90
2022-07-30T00:45:11.057Z,55.95
2022-07-30T00:46:11.162Z,55.89
2022-07-30T00:47:11.053Z,55.89
2022-07-30T00:48:11.056Z,55.92
2022-07-30T00:49:11.168Z,55.92
2022-07-30T00:50:11.056Z,55.99
2022-07-30T00:51:11.060Z,55.96
2022-07-30T00:52:11.057Z,55.90
2022-07-30T00:53:11.058Z,55.93
2022-07-30T00:54:11.059Z,56.01
2022-07-30T00:55:11.058Z,55.91
2022-07-30T00:56:11.058Z,55.87
2022-07-30T00:57:11.062Z,55.85
2022-07-30T00:58:11.059Z,55.89
2022-07-30T00:59:11.058Z,55.84
2022-07-30T01:00:12.062Z,55.85
2022-07-30T01:01:11.100Z,55.84
2022-07-30T01:02:11.076Z,55.77
2022-07-30T01:03:11.059Z,55.74
2022-07-30T01:04:15.069Z,55.95
2022-07-30T01:05:11.061Z,55.83
2022-07-30T01:06:14.196Z,55.90
2022-07-30T01:07:11.062Z,55.92
2022-07-30T01:08:11.060Z,55.95
2022-07-30T01:09:11.060Z,55.79
2022-07-30T01:10:11.060Z,55.92
2022-07-30T01:11:11.064Z,55.86
2022-07-30T01:12:11.059Z,55.95
2022-07-30T01:13:11.061Z,55.94
2022-07-30T01:14:11.061Z,55.91
2022-07-30T01:15:11.062Z,55.90
2022-07-30T01:16:11.134Z,55.85
2022-07-30T01:17:11.063Z,56.04
2022-07-30T01:18:12.060Z,56.14
2022-07-30T01:19:21.063Z,56.04
2022-07-30T01:20:13.069Z,56.03
2022-07-30T01:21:15.060Z,56.00
2022-07-30T01:22:21.064Z,56.05
2022-07-30T01:23:17.057Z,56.08
2022-07-30T01:24:19.072Z,56.36
2022-07-30T01:25:16.080Z,56.41
2022-07-30T01:26:15.059Z,56.43
2022-07-30T01:27:11.061Z,56.45
2022-07-30T01:28:15.061Z,56.54
2022-07-30T01:29:11.060Z,56.51
2022-07-30T01:30:11.058Z,56.59
2022-07-30T01:31:11.177Z,56.63
2022-07-30T01:32:11.059Z,56.58
2022-07-30T01:33:14.062Z,56.50
2022-07-30T01:34:11.063Z,56.49
2022-07-30T01:35:11.061Z,56.46
2022-07-30T01:36:12.067Z,56.38
2022-07-30T01:37:12.063Z,56.47
2022-07-30T01:38:11.061Z,56.42
2022-07-30T01:39:11.060Z,56.45
2022-07-30T01:40:11.060Z,56.41
2022-07-30T01:41:11.065Z,56.41
2022-07-30T01:42:11.066Z,56.41
2022-07-30T01:43:11.061Z,56.42
2022-07-30T01:44:11.064Z,56.39
2022-07-30T01:45:11.061Z,56.37
2022-07-30T01:46:11.119Z,56.40
2022-07-30T01:47:11.070Z,56.30
2022-07-30T01:48:11.058Z,56.51
2022-07-30T01:49:11.236Z,56.53
2022-07-30T01:50:13.072Z,56.62
2022-07-30T01:51:11.060Z,56.63
2022-07-30T01:52:11.067Z,56.60
2022-07-30T01:53:13.075Z,56.59
2022-07-30T01:54:11.066Z,56.64
2022-07-30T01:55:17.019Z,56.64
2022-07-30T01:56:13.359Z,56.76
2022-07-30T01:57:11.067Z,56.65
2022-07-30T01:58:11.060Z,56.78
2022-07-30T01:59:11.064Z,56.82
2022-07-30T02:00:11.070Z,56.75
2022-07-30T02:01:11.155Z,56.73
2022-07-30T02:02:11.067Z,56.68
2022-07-30T02:03:11.152Z,56.68
2022-07-30T02:04:11.066Z,56.73
2022-07-30T02:05:11.064Z,56.80
2022-07-30T02:06:14.067Z,56.78
2022-07-30T02:07:21.074Z,56.76
2022-07-30T02:08:20.063Z,56.76
2022-07-30T02:09:11.577Z,56.73
2022-07-30T02:10:17.068Z,56.66
2022-07-30T02:11:15.068Z,56.84
2022-07-30T02:12:16.063Z,56.70
2022-07-30T02:13:11.065Z,56.87
2022-07-30T02:14:17.068Z,56.78
2022-07-30T02:15:19.068Z,56.77
2022-07-30T02:16:17.128Z,56.71
2022-07-30T02:17:18.965Z,56.75
2022-07-30T02:18:19.366Z,56.79
2022-07-30T02:19:17.074Z,56.87
2022-07-30T02:20:11.068Z,56.83
2022-07-30T02:21:11.490Z,56.85
2022-07-30T02:22:13.066Z,56.87
2022-07-30T02:23:14.061Z,56.94
2022-07-30T02:24:14.058Z,57.02
2022-07-30T02:25:13.059Z,56.98
2022-07-30T02:26:12.068Z,56.94
2022-07-30T02:27:16.059Z,56.92
2022-07-30T02:28:12.060Z,57.00
2022-07-30T02:29:11.557Z,56.92
2022-07-30T02:30:11.075Z,57.26
2022-07-30T02:31:16.923Z,57.28
2022-07-30T02:32:15.154Z,57.43
2022-07-30T02:33:11.068Z,57.39
2022-07-30T02:34:11.065Z,57.45
2022-07-30T02:35:17.064Z,57.51
2022-07-30T02:36:11.223Z,57.46
2022-07-30T02:37:11.064Z,57.44
2022-07-30T02:38:12.059Z,57.53
2022-07-30T02:39:11.064Z,57.58
2022-07-30T02:40:11.066Z,57.61
2022-07-30T02:41:11.062Z,57.80
2022-07-30T02:42:12.062Z,57.66
2022-07-30T02:43:11.064Z,57.66
2022-07-30T02:44:11.064Z,57.62
2022-07-30T02:45:11.064Z,57.54
2022-07-30T02:46:11.116Z,57.46
2022-07-30T02:47:11.085Z,57.48
2022-07-30T02:48:12.063Z,57.56
2022-07-30T02:49:13.174Z,57.59
2022-07-30T02:50:11.060Z,57.75
2022-07-30T02:51:11.063Z,57.96
2022-07-30T02:52:12.066Z,57.76
2022-07-30T02:53:11.065Z,57.73
2022-07-30T02:54:11.067Z,57.81
2022-07-30T02:55:11.075Z,57.74
2022-07-30T02:56:11.066Z,57.71
2022-07-30T02:57:11.069Z,57.67
2022-07-30T02:58:11.073Z,57.81
2022-07-30T02:59:11.069Z,57.91
2022-07-30T03:00:11.062Z,57.85
2022-07-30T03:01:11.141Z,57.84
2022-07-30T03:02:11.093Z,57.89
2022-07-30T03:03:12.064Z,57.87
2022-07-30T03:04:11.066Z,57.81
2022-07-30T03:05:11.069Z,57.79
2022-07-30T03:06:13.064Z,57.79
2022-07-30T03:07:11.506Z,57.92
2022-07-30T03:08:11.067Z,58.11
2022-07-30T03:09:11.067Z,58.07
2022-07-30T03:10:11.070Z,58.18
2022-07-30T03:11:12.071Z,58.25
2022-07-30T03:12:11.066Z,58.23
2022-07-30T03:13:11.067Z,58.29
2022-07-30T03:14:11.070Z,58.28
2022-07-30T03:15:11.067Z,58.39
2022-07-30T03:16:11.117Z,58.42
2022-07-30T03:17:11.071Z,58.54
2022-07-30T03:18:14.069Z,58.54
2022-07-30T03:19:11.070Z,58.46
2022-07-30T03:20:15.071Z,58.47
2022-07-30T03:21:11.071Z,58.50
2022-07-30T03:22:11.065Z,58.56
2022-07-30T03:23:11.061Z,58.57
2022-07-30T03:24:12.059Z,58.47
2022-07-30T03:25:11.059Z,58.46
2022-07-30T03:26:11.057Z,58.66
2022-07-30T03:27:11.061Z,58.65
2022-07-30T03:28:11.057Z,58.59
2022-07-30T03:29:11.060Z,58.63
2022-07-30T03:30:11.061Z,58.70
2022-07-30T03:31:11.753Z,58.77
2022-07-30T03:32:13.646Z,58.84
2022-07-30T03:33:11.067Z,58.79
2022-07-30T03:34:12.678Z,58.74
2022-07-30T03:35:17.486Z,58.83
2022-07-30T03:36:14.229Z,59.00
2022-07-30T03:37:11.061Z,59.04
2022-07-30T03:38:12.060Z,58.93
2022-07-30T03:39:11.060Z,59.01
2022-07-30T03:40:11.061Z,59.08
2022-07-30T03:41:11.059Z,58.95
2022-07-30T03:42:11.061Z,58.98
2022-07-30T03:43:32.734Z,58.92
2022-07-30T03:44:13.172Z,58.95
2022-07-30T03:45:11.057Z,58.79
2022-07-30T03:46:11.135Z,58.83
2022-07-30T03:47:11.061Z,58.75
2022-07-30T03:48:11.061Z,58.87
2022-07-30T03:49:11.134Z,59.03
2022-07-30T03:50:11.062Z,58.98
2022-07-30T03:51:11.060Z,59.08
2022-07-30T03:52:11.061Z,59.14
2022-07-30T03:53:11.065Z,59.11
2022-07-30T03:54:13.738Z,59.14
2022-07-30T03:55:11.067Z,59.19
2022-07-30T03:56:11.068Z,59.15
2022-07-30T03:57:11.061Z,59.09
2022-07-30T03:58:13.170Z,59.15
2022-07-30T03:59:11.065Z,59.10
2022-07-30T04:00:14.066Z,59.02
2022-07-30T04:01:11.062Z,59.13
2022-07-30T04:02:11.096Z,59.17
2022-07-30T04:03:11.065Z,59.24
2022-07-30T04:04:11.111Z,59.33
2022-07-30T04:05:11.064Z,59.44
2022-07-30T04:06:11.067Z,59.55
2022-07-30T04:07:11.066Z,59.61
2022-07-30T04:08:11.064Z,59.53
2022-07-30T04:09:11.067Z,59.71
2022-07-30T04:10:11.063Z,59.62
2022-07-30T04:11:11.067Z,59.74
2022-07-30T04:12:11.066Z,59.72
2022-07-30T04:13:11.064Z,59.74
2022-07-30T04:14:11.065Z,59.96
2022-07-30T04:16:15.846Z,59.90
2022-07-30T04:16:38.994Z,59.96
2022-07-30T04:17:21.149Z,59.96
2022-07-30T04:18:12.067Z,59.85
2022-07-30T04:19:15.068Z,59.89
2022-07-30T04:20:18.165Z,59.93
2022-07-30T04:21:17.026Z,59.87
2022-07-30T04:22:11.067Z,59.82
2022-07-30T04:23:11.066Z,59.87
2022-07-30T04:24:11.058Z,59.82
2022-07-30T04:25:12.059Z,59.82
2022-07-30T04:26:13.167Z,59.75
2022-07-30T04:27:11.062Z,59.68
2022-07-30T04:28:11.058Z,59.61
2022-07-30T04:29:16.662Z,59.55
2022-07-30T04:30:13.117Z,59.62
2022-07-30T04:31:11.083Z,59.50
2022-07-30T04:32:11.062Z,59.54
2022-07-30T04:33:11.067Z,59.53
2022-07-30T04:34:12.059Z,59.40
2022-07-30T04:35:11.065Z,59.70
2022-07-30T04:36:16.215Z,59.62
2022-07-30T04:37:11.062Z,59.71
2022-07-30T04:38:11.061Z,59.67
2022-07-30T04:39:11.060Z,59.73
2022-07-30T04:40:11.065Z,59.79
2022-07-30T04:41:11.059Z,59.71
2022-07-30T04:42:11.064Z,59.71
2022-07-30T04:43:11.069Z,59.80
2022-07-30T04:44:11.065Z,59.90
2022-07-30T04:45:11.580Z,60.20
2022-07-30T04:46:11.166Z,60.15
2022-07-30T04:47:11.064Z,60.02
2022-07-30T04:48:11.069Z,60.08
2022-07-30T04:49:11.112Z,60.12
2022-07-30T04:50:12.063Z,60.06
2022-07-30T04:51:19.061Z,59.95
2022-07-30T04:52:11.065Z,59.93
2022-07-30T04:53:11.071Z,59.88
2022-07-30T04:54:15.399Z,59.90
2022-07-30T04:55:11.073Z,59.91
2022-07-30T04:56:11.066Z,59.93
2022-07-30T04:57:11.066Z,60.01
2022-07-30T04:58:11.061Z,59.92
2022-07-30T04:59:11.066Z,60.06
2022-07-30T05:00:11.064Z,60.20
2022-07-30T05:01:11.101Z,60.19
2022-07-30T05:02:11.119Z,60.12
2022-07-30T05:03:13.066Z,60.07
2022-07-30T05:04:11.064Z,60.05
2022-07-30T05:05:11.127Z,60.15
2022-07-30T05:06:11.066Z,60.23
2022-07-30T05:07:12.064Z,60.27
2022-07-30T05:08:12.064Z,60.37
2022-07-30T05:09:11.068Z,60.39
2022-07-30T05:10:11.065Z,60.55
2022-07-30T05:11:13.066Z,60.65
2022-07-30T05:12:11.075Z,60.62
2022-07-30T05:13:16.068Z,60.79
2022-07-30T05:14:11.068Z,60.89
2022-07-30T05:15:11.067Z,61.02
2022-07-30T05:16:11.111Z,61.00
2022-07-30T05:17:11.066Z,61.11
2022-07-30T05:18:11.066Z,61.20
2022-07-30T05:19:11.068Z,61.53
2022-07-30T05:20:11.067Z,61.49
2022-07-30T05:21:11.068Z,61.60
2022-07-30T05:22:11.072Z,61.98
2022-07-30T05:23:11.063Z,62.42
2022-07-30T05:24:11.059Z,62.55
2022-07-30T05:25:16.246Z,62.36
2022-07-30T05:26:14.058Z,62.54
2022-07-30T05:27:11.058Z,62.54
2022-07-30T05:28:11.062Z,62.63
2022-07-30T05:29:19.300Z,62.87
2022-07-30T05:30:13.158Z,63.09
2022-07-30T05:31:11.093Z,63.09
2022-07-30T05:32:11.067Z,63.05
2022-07-30T05:33:15.698Z,63.15
2022-07-30T05:34:11.062Z,63.19
2022-07-30T05:35:11.070Z,63.17
2022-07-30T05:36:11.060Z,63.19
2022-07-30T05:37:12.290Z,63.16
2022-07-30T05:38:11.070Z,63.15
2022-07-30T05:39:11.061Z,63.28
2022-07-30T05:40:11.063Z,63.34
2022-07-30T05:41:19.055Z,63.17
2022-07-30T05:42:13.163Z,63.12
2022-07-30T05:43:11.064Z,63.16
2022-07-30T05:44:11.071Z,63.17
2022-07-30T05:45:11.064Z,63.29
2022-07-30T05:46:11.121Z,63.26
2022-07-30T05:47:11.065Z,63.11
2022-07-30T05:48:11.065Z,63.12
2022-07-30T05:49:11.131Z,63.14
2022-07-30T05:50:11.068Z,63.14
2022-07-30T05:51:11.066Z,63.16
2022-07-30T05:52:11.067Z,63.17
2022-07-30T05:53:11.067Z,63.19
2022-07-30T05:54:11.067Z,62.92
2022-07-30T05:55:11.066Z,62.70
2022-07-30T05:56:11.065Z,62.62
2022-07-30T05:57:11.069Z,62.51
2022-07-30T05:58:11.066Z,62.53
2022-07-30T05:59:11.067Z,62.44
2022-07-30T06:00:11.067Z,62.36
2022-07-30T06:01:12.105Z,62.17
2022-07-30T06:02:11.066Z,62.10
2022-07-30T06:03:11.068Z,61.91
2022-07-30T06:04:11.075Z,61.78
2022-07-30T06:05:11.068Z,61.58
2022-07-30T06:06:11.073Z,61.54
2022-07-30T06:07:11.065Z,61.62
2022-07-30T06:08:11.068Z,61.57
2022-07-30T06:09:11.075Z,61.44
2022-07-30T06:10:11.066Z,61.23
2022-07-30T06:11:12.067Z,61.18
2022-07-30T06:12:11.074Z,61.04
2022-07-30T06:13:11.066Z,61.16
2022-07-30T06:14:11.069Z,61.06
2022-07-30T06:15:11.076Z,60.97
2022-07-30T06:16:11.127Z,60.90
2022-07-30T06:17:11.071Z,60.84
2022-07-30T06:18:11.081Z,60.82
2022-07-30T06:19:11.070Z,60.85
2022-07-30T06:20:13.181Z,60.78
2022-07-30T06:21:11.071Z,60.67
2022-07-30T06:22:11.072Z,60.68
2022-07-30T06:23:11.058Z,60.64
2022-07-30T06:24:11.059Z,60.49
2022-07-30T06:25:11.060Z,60.38
2022-07-30T06:26:11.057Z,60.31
2022-07-30T06:27:11.057Z,60.24
2022-07-30T06:28:35.129Z,60.21
2022-07-30T06:29:13.394Z,60.18
2022-07-30T06:30:11.060Z,60.08
2022-07-30T06:31:11.155Z,59.98
2022-07-30T06:32:11.062Z,59.90
2022-07-30T06:33:11.064Z,59.81
2022-07-30T06:34:11.069Z,59.74
2022-07-30T06:35:11.063Z,59.79
2022-07-30T06:36:14.192Z,59.56
2022-07-30T06:37:11.068Z,59.43
2022-07-30T06:38:11.061Z,59.20
2022-07-30T06:39:11.063Z,59.24
2022-07-30T06:40:11.068Z,59.23
2022-07-30T06:41:11.092Z,59.31
2022-07-30T06:42:11.063Z,59.18
2022-07-30T06:43:11.069Z,58.95
2022-07-30T06:44:11.059Z,58.86
2022-07-30T06:45:11.064Z,58.87
2022-07-30T06:46:11.131Z,58.79
2022-07-30T06:47:11.605Z,58.67
2022-07-30T06:48:11.062Z,58.63
2022-07-30T06:49:11.159Z,58.68
2022-07-30T06:50:11.060Z,58.47
2022-07-30T06:51:11.063Z,58.42
2022-07-30T06:52:13.549Z,58.40
2022-07-30T06:53:13.141Z,58.42
2022-07-30T06:54:11.060Z,58.55
2022-07-30T06:55:11.064Z,58.69
2022-07-30T06:56:11.065Z,58.72
2022-07-30T06:57:11.062Z,58.61
2022-07-30T06:58:11.067Z,58.73
2022-07-30T06:59:11.065Z,58.91
2022-07-30T07:00:11.063Z,58.85
2022-07-30T07:01:11.583Z,58.91
2022-07-30T07:02:11.067Z,59.11
2022-07-30T07:03:11.956Z,59.21
2022-07-30T07:04:11.109Z,59.26
2022-07-30T07:05:11.068Z,59.36
2022-07-30T07:06:11.064Z,59.38
2022-07-30T07:07:12.401Z,59.54
2022-07-30T07:08:11.068Z,59.52
2022-07-30T07:09:11.065Z,59.67
2022-07-30T07:10:11.075Z,59.70
2022-07-30T07:11:11.085Z,59.66
2022-07-30T07:12:11.065Z,59.69
2022-07-30T07:13:11.065Z,59.66
2022-07-30T07:14:11.071Z,59.57
2022-07-30T07:15:11.069Z,59.72
2022-07-30T07:16:11.066Z,59.51
2022-07-30T07:17:11.142Z,59.33
2022-07-30T07:18:11.066Z,59.55
2022-07-30T07:19:11.067Z,59.49
2022-07-30T07:20:11.078Z,59.53
2022-07-30T07:21:11.067Z,59.42
2022-07-30T07:22:11.068Z,59.46
2022-07-30T07:23:12.228Z,59.54
2022-07-30T07:24:11.056Z,59.37
2022-07-30T07:25:11.060Z,59.43
2022-07-30T07:26:11.068Z,59.33
2022-07-30T07:27:15.291Z,59.38
2022-07-30T07:28:13.402Z,59.48
2022-07-30T07:29:11.070Z,59.33
2022-07-30T07:30:11.060Z,59.34
2022-07-30T07:31:11.135Z,59.14
2022-07-30T07:32:11.145Z,59.18
2022-07-30T07:33:11.084Z,59.46
2022-07-30T07:34:15.452Z,59.61
2022-07-30T07:35:13.937Z,59.65
2022-07-30T07:36:11.064Z,59.47
2022-07-30T07:37:11.057Z,59.40
2022-07-30T07:38:11.064Z,59.43
2022-07-30T07:39:14.878Z,59.34
2022-07-30T07:40:11.061Z,59.35
2022-07-30T07:41:11.060Z,59.31
2022-07-30T07:42:11.063Z,59.37
2022-07-30T07:43:11.061Z,59.30
2022-07-30T07:44:11.061Z,59.27
2022-07-30T07:45:11.064Z,59.19
2022-07-30T07:46:11.108Z,59.20
2022-07-30T07:47:11.062Z,59.44
2022-07-30T07:48:11.068Z,59.29
2022-07-30T07:49:11.177Z,59.32
2022-07-30T07:50:11.063Z,59.51
2022-07-30T07:51:11.065Z,59.38
2022-07-30T07:52:11.062Z,59.69
2022-07-30T07:53:11.065Z,59.60
2022-07-30T07:54:20.952Z,59.50
2022-07-30T07:55:13.155Z,59.39
2022-07-30T07:56:12.072Z,59.75
2022-07-30T07:57:12.852Z,59.78
2022-07-30T07:58:11.065Z,59.86
2022-07-30T07:59:11.063Z,59.89
2022-07-30T08:00:11.067Z,60.04
2022-07-30T08:01:11.148Z,60.39
2022-07-30T08:02:11.105Z,60.45
2022-07-30T08:03:11.066Z,60.50
2022-07-30T08:04:11.076Z,60.48
2022-07-30T08:05:11.064Z,60.50
2022-07-30T08:06:15.015Z,60.77
2022-07-30T08:07:11.073Z,60.89
2022-07-30T08:08:11.066Z,61.00
2022-07-30T08:09:11.069Z,60.97
2022-07-30T08:10:11.088Z,61.08
2022-07-30T08:11:11.067Z,60.93
2022-07-30T08:12:11.062Z,61.01
2022-07-30T08:13:49.293Z,61.09
2022-07-30T08:14:13.168Z,61.31
2022-07-30T08:15:11.065Z,61.57
2022-07-30T08:16:12.594Z,61.67
2022-07-30T08:17:11.115Z,61.42
2022-07-30T08:18:11.066Z,61.36
2022-07-30T08:19:11.067Z,61.33
2022-07-30T08:20:11.067Z,61.31
2022-07-30T08:21:11.067Z,61.34
2022-07-30T08:22:11.072Z,61.50
2022-07-30T08:23:11.059Z,61.48
2022-07-30T08:24:11.058Z,61.55
2022-07-30T08:25:11.058Z,61.38
2022-07-30T08:26:11.062Z,61.28
2022-07-30T08:27:11.062Z,61.20
2022-07-30T08:28:35.490Z,61.19
2022-07-30T08:29:17.085Z,61.07
2022-07-30T08:30:11.067Z,61.00
2022-07-30T08:31:11.060Z,60.91
2022-07-30T08:32:11.069Z,60.93
2022-07-30T08:33:11.062Z,60.91
2022-07-30T08:34:11.059Z,60.63
2022-07-30T08:35:11.074Z,60.46
2022-07-30T08:36:11.063Z,60.33
2022-07-30T08:37:11.057Z,60.14
2022-07-30T08:38:11.064Z,60.25
2022-07-30T08:39:11.063Z,59.96
2022-07-30T08:40:11.061Z,59.96
2022-07-30T08:41:11.066Z,60.15
2022-07-30T08:42:12.064Z,60.05
2022-07-30T08:43:11.062Z,60.02
2022-07-30T08:44:12.896Z,60.04
2022-07-30T08:45:12.066Z,59.87
2022-07-30T08:46:12.067Z,59.66
2022-07-30T08:47:11.073Z,59.60
2022-07-30T08:48:16.293Z,59.64
2022-07-30T08:49:11.596Z,59.84
2022-07-30T08:50:11.072Z,59.74
2022-07-30T08:51:11.074Z,59.58
2022-07-30T08:52:12.063Z,59.56
2022-07-30T08:53:11.065Z,59.57
2022-07-30T08:54:11.081Z,59.45
2022-07-30T08:55:11.092Z,59.43
2022-07-30T08:56:11.067Z,59.43
2022-07-30T08:57:11.067Z,59.56
2022-07-30T08:58:19.063Z,59.57
2022-07-30T08:59:11.067Z,59.59
2022-07-30T09:00:11.065Z,59.80
2022-07-30T09:01:11.068Z,60.30
2022-07-30T09:02:13.102Z,60.30
2022-07-30T09:03:11.066Z,60.49
2022-07-30T09:04:11.076Z,60.84
2022-07-30T09:05:11.070Z,60.50
2022-07-30T09:06:11.066Z,60.41
2022-07-30T09:07:11.071Z,60.45
2022-07-30T09:08:11.066Z,60.20
2022-07-30T09:09:11.067Z,60.10
2022-07-30T09:10:11.068Z,59.72
2022-07-30T09:11:11.065Z,59.51
2022-07-30T09:12:19.070Z,59.33
2022-07-30T09:13:19.081Z,58.85
2022-07-30T09:14:14.070Z,58.50
2022-07-30T09:15:15.074Z,58.08
2022-07-30T09:16:19.087Z,57.97
2022-07-30T09:17:11.077Z,57.77
2022-07-30T09:18:11.066Z,57.66
2022-07-30T09:19:17.074Z,57.75
2022-07-30T09:20:11.075Z,57.61
2022-07-30T09:21:18.072Z,57.56
2022-07-30T09:22:11.068Z,57.40
2022-07-30T09:23:11.061Z,57.43
2022-07-30T09:24:11.060Z,57.35
2022-07-30T09:25:11.058Z,57.48
2022-07-30T09:26:11.059Z,57.52
2022-07-30T09:27:11.060Z,57.48
2022-07-30T09:28:16.626Z,57.64
2022-07-30T09:29:17.247Z,57.52
2022-07-30T09:30:11.066Z,57.96
2022-07-30T09:31:11.062Z,57.92
2022-07-30T09:32:11.057Z,57.80
2022-07-30T09:33:11.059Z,57.83
2022-07-30T09:34:19.062Z,57.70
2022-07-30T09:35:15.058Z,58.15
2022-07-30T09:36:11.058Z,57.93
2022-07-30T09:37:19.068Z,58.17
2022-07-30T09:38:11.064Z,58.17
2022-07-30T09:39:11.063Z,58.25
2022-07-30T09:40:17.141Z,58.25
2022-07-30T09:41:23.036Z,58.45
2022-07-30T09:42:21.107Z,58.75
2022-07-30T09:43:13.060Z,58.51
2022-07-30T09:44:11.062Z,58.36
2022-07-30T09:45:14.063Z,58.27
2022-07-30T09:46:11.062Z,58.29
2022-07-30T09:47:15.075Z,58.25
2022-07-30T09:48:19.064Z,58.09
2022-07-30T09:49:17.359Z,57.97
2022-07-30T09:50:17.774Z,58.23
2022-07-30T09:51:16.005Z,57.90
2022-07-30T09:52:11.062Z,57.83
2022-07-30T09:53:11.933Z,57.54
2022-07-30T09:54:11.063Z,57.40
2022-07-30T09:55:11.064Z,57.39
2022-07-30T09:56:19.067Z,57.46
2022-07-30T09:57:22.876Z,57.36
2022-07-30T09:58:26.388Z,57.38
2022-07-30T09:59:21.290Z,57.30
2022-07-30T10:00:18.583Z,57.58
2022-07-30T10:01:11.063Z,57.94
2022-07-30T10:02:11.072Z,57.86
2022-07-30T10:03:21.759Z,58.16
2022-07-30T10:04:13.103Z,58.38
2022-07-30T10:05:16.068Z,58.48
2022-07-30T10:06:11.657Z,58.57
2022-07-30T10:07:25.547Z,58.48
2022-07-30T10:08:16.795Z,58.56
2022-07-30T10:09:14.050Z,58.79
2022-07-30T10:10:11.068Z,58.71
2022-07-30T10:11:15.068Z,58.69
2022-07-30T10:12:11.473Z,58.78
2022-07-30T10:13:13.617Z,59.00
2022-07-30T10:14:11.069Z,58.97
2022-07-30T10:15:11.073Z,58.96
2022-07-30T10:16:11.068Z,59.11
2022-07-30T10:17:11.075Z,59.08
2022-07-30T10:18:11.067Z,59.29
2022-07-30T10:19:19.223Z,59.31
2022-07-30T10:20:13.163Z,59.22
2022-07-30T10:21:11.068Z,59.28
2022-07-30T10:22:11.537Z,59.39
2022-07-30T10:23:11.060Z,59.54
2022-07-30T10:24:11.063Z,59.62
2022-07-30T10:25:11.057Z,59.70
2022-07-30T10:26:13.138Z,59.69
2022-07-30T10:27:11.066Z,59.99
2022-07-30T10:28:11.057Z,60.20
2022-07-30T10:29:12.928Z,60.22
2022-07-30T10:30:13.676Z,60.17
2022-07-30T10:31:49.435Z,60.28
2022-07-30T10:32:13.180Z,60.54
2022-07-30T10:33:11.301Z,60.49
2022-07-30T10:34:13.183Z,60.78
2022-07-30T10:35:11.061Z,60.87
2022-07-30T10:36:12.061Z,60.74
2022-07-30T10:37:11.063Z,60.76
2022-07-30T10:38:13.473Z,60.72
2022-07-30T10:39:14.058Z,60.98
2022-07-30T10:40:19.064Z,61.13
2022-07-30T10:41:42.331Z,61.01
2022-07-30T10:42:21.069Z,61.05
2022-07-30T10:43:19.059Z,61.27
2022-07-30T10:44:19.610Z,61.49
2022-07-30T10:45:18.130Z,61.56
2022-07-30T10:46:22.048Z,61.40
2022-07-30T10:47:12.071Z,61.38
2022-07-30T10:48:11.061Z,61.44
2022-07-30T10:49:11.746Z,61.49
2022-07-30T10:50:22.363Z,61.44
2022-07-30T10:51:11.064Z,61.35
2022-07-30T10:52:13.187Z,61.16
2022-07-30T10:53:11.067Z,61.18
2022-07-30T10:54:19.063Z,60.89
2022-07-30T10:55:18.062Z,60.75
2022-07-30T10:56:25.603Z,60.54
2022-07-30T10:57:26.527Z,60.25
2022-07-30T10:58:17.950Z,60.12
2022-07-30T10:59:14.980Z,60.05
2022-07-30T11:00:11.068Z,60.15
2022-07-30T11:01:18.463Z,60.15
2022-07-30T11:02:13.138Z,60.05
2022-07-30T11:03:18.187Z,60.01
2022-07-30T11:04:20.264Z,59.96
2022-07-30T11:05:27.266Z,59.97
2022-07-30T11:06:24.873Z,59.78
2022-07-30T11:07:19.068Z,59.99
2022-07-30T11:08:19.078Z,59.91
2022-07-30T11:09:21.237Z,60.00
2022-07-30T11:10:19.065Z,59.83
2022-07-30T11:11:20.261Z,59.92
2022-07-30T11:12:12.761Z,59.86
2022-07-30T11:13:11.072Z,60.11
2022-07-30T11:14:11.065Z,59.99
2022-07-30T11:15:19.343Z,60.08
2022-07-30T11:16:13.185Z,60.09
2022-07-30T11:17:11.065Z,60.36
2022-07-30T11:18:12.117Z,60.52
2022-07-30T11:19:56.148Z,60.48
2022-07-30T11:20:15.336Z,60.44
2022-07-30T11:21:15.063Z,60.41
2022-07-30T11:22:19.073Z,60.54
2022-07-30T11:23:19.058Z,60.80
2022-07-30T11:24:19.056Z,60.60
2022-07-30T11:25:15.058Z,60.73
2022-07-30T11:26:14.197Z,60.85
2022-07-30T11:27:11.065Z,61.04
2022-07-30T11:28:19.056Z,61.16
2022-07-30T11:29:19.061Z,61.08
2022-07-30T11:30:24.288Z,61.21
2022-07-30T11:31:19.072Z,60.99
2022-07-30T11:32:22.059Z,60.99
2022-07-30T11:33:19.059Z,60.83
2022-07-30T11:34:19.056Z,61.05
2022-07-30T11:35:19.059Z,60.88
2022-07-30T11:36:12.081Z,60.70
2022-07-30T11:37:18.272Z,60.95
2022-07-30T11:38:15.110Z,61.00
2022-07-30T11:39:11.062Z,60.80
2022-07-30T11:40:11.238Z,60.86
2022-07-30T11:41:13.059Z,60.79
2022-07-30T11:42:19.061Z,60.97
2022-07-30T11:43:34.783Z,61.04
2022-07-30T11:44:21.350Z,60.99
2022-07-30T11:45:20.062Z,61.09
2022-07-30T11:46:16.481Z,61.13
2022-07-30T11:47:11.060Z,61.02
2022-07-30T11:48:14.070Z,61.10
2022-07-30T11:49:12.131Z,60.85
2022-07-30T11:50:18.065Z,60.79
2022-07-30T11:51:11.061Z,60.72
2022-07-30T11:52:11.064Z,60.76
2022-07-30T11:53:17.060Z,60.67
2022-07-30T11:54:11.065Z,60.62
2022-07-30T11:55:11.070Z,60.64
2022-07-30T11:56:13.953Z,60.71
2022-07-30T11:57:11.065Z,60.71
2022-07-30T11:58:15.072Z,60.69
2022-07-30T11:59:11.065Z,60.90
2022-07-30T12:00:11.066Z,60.97
2022-07-30T12:01:15.072Z,61.03
2022-07-30T12:02:11.066Z,61.02
2022-07-30T12:03:15.069Z,60.85
2022-07-30T12:04:11.064Z,60.89
2022-07-30T12:05:11.067Z,61.04
2022-07-30T12:06:12.064Z,61.12
2022-07-30T12:07:11.065Z,61.15
2022-07-30T12:08:33.557Z,61.07
2022-07-30T12:09:13.468Z,61.35
2022-07-30T12:10:16.250Z,61.50
2022-07-30T12:11:11.068Z,61.49
2022-07-30T12:12:19.089Z,61.65
2022-07-30T12:13:15.067Z,61.50
2022-07-30T12:14:11.067Z,61.63
2022-07-30T12:15:11.075Z,61.70
2022-07-30T12:16:11.066Z,61.88
2022-07-30T12:17:15.114Z,61.63
2022-07-30T12:18:25.809Z,61.40
2022-07-30T12:19:13.156Z,61.65
2022-07-30T12:20:17.069Z,61.70
2022-07-30T12:21:12.102Z,61.68
2022-07-30T12:22:11.069Z,61.66
2022-07-30T12:23:15.057Z,61.43
2022-07-30T12:24:13.115Z,61.46
2022-07-30T12:25:11.066Z,61.25
2022-07-30T12:26:15.056Z,61.42
2022-07-30T12:27:11.055Z,61.26
2022-07-30T12:28:17.067Z,60.92
2022-07-30T12:29:11.059Z,60.70
2022-07-30T12:30:11.071Z,60.58
2022-07-30T12:31:14.067Z,60.25
2022-07-30T12:32:11.059Z,60.05
2022-07-30T12:33:11.058Z,59.87
2022-07-30T12:34:19.062Z,59.55
2022-07-30T12:35:11.070Z,59.55
2022-07-30T12:36:15.062Z,59.38
2022-07-30T12:37:11.087Z,59.30
2022-07-30T12:38:11.069Z,59.26
2022-07-30T12:39:19.063Z,59.27
2022-07-30T12:40:15.322Z,59.07
2022-07-30T12:41:11.063Z,59.13
2022-07-30T12:42:19.074Z,59.14
2022-07-30T12:43:13.543Z,59.13
2022-07-30T12:44:11.060Z,59.13
2022-07-30T12:45:19.063Z,59.10
2022-07-30T12:46:14.838Z,58.98
2022-07-30T12:47:19.073Z,58.83
2022-07-30T12:48:13.063Z,58.78
2022-07-30T12:49:22.441Z,59.00
2022-07-30T12:50:19.794Z,58.81
2022-07-30T12:51:11.066Z,58.58
2022-07-30T12:52:18.560Z,58.72